Time;durP1;ratioP1;P1;durP2;ratioP2;P2;SDS_P1;SDS_P2;PMS_P1;PMS_P2;Temp;Humidity;BMP_temperature;BMP_pressure;BME280_temperature;BME280_humidity;BME280_pressure;Samples;Min_cycle;Max_cycle;Signal;HPM_P1;HPM_P2
2021/08/18 00:31:47;;;;;;;7.37;5.07;;;13.70;92.60;;;;;;4589773;30;20291;-88
2021/08/18 02:59:51;;;;;;;9.80;6.23;;;13.60;90.10;;;;;;4689375;30;20434;-86
2021/08/18 03:30:17;;;;;;;11.73;6.77;;;13.70;90.30;;;;;;4720254;30;20611;-86
2021/08/18 04:47:11;;;;;;;10.27;6.93;;;14.80;88.70;;;;;;4686084;29;20245;-85
2021/08/18 05:12:40;;;;;;;9.97;7.20;;;15.10;87.90;;;;;;4717879;30;20243;-87
2021/08/18 05:37:31;;;;;;;11.13;7.07;;;16.00;86.50;;;;;;4664869;30;20228;-88
2021/08/18 05:58:38;;;;;;;12.17;8.03;;;15.80;86.80;;;;;;4695850;30;20231;-87
2021/08/18 07:20:13;;;;;;;12.80;7.83;;;17.30;85.80;;;;;;4652357;30;20282;-85
2021/08/18 07:45:36;;;;;;;11.23;6.53;;;18.20;84.10;;;;;;4702548;29;20194;-84
2021/08/18 08:31:55;;;;;;;7.37;5.33;;;19.00;82.30;;;;;;4584757;30;20242;-84
2021/08/18 09:17:37;;;;;;;9.50;6.33;;;19.00;81.10;;;;;;4688202;30;20199;-83
2021/08/18 09:38:07;;;;;;;9.57;5.23;;;19.80;80.30;;;;;;4730471;29;20410;-83
2021/08/18 10:03:28;;;;;;;7.47;5.63;;;20.30;79.60;;;;;;4566366;30;20265;-85
2021/08/18 10:24:01;;;;;;;9.80;5.87;;;20.00;79.80;;;;;;4538934;30;20979;-85
2021/08/18 11:19:52;;;;;;;6.20;4.90;;;19.90;79.40;;;;;;4574923;29;20692;-81
2021/08/18 11:45:53;;;;;;;8.87;4.97;;;20.10;77.80;;;;;;4613548;29;20535;-81
2021/08/18 12:26:32;;;;;;;7.83;4.90;;;20.30;78.90;;;;;;4520970;30;20618;-81
2021/08/18 12:29:03;;;;;;;7.63;4.90;;;20.50;78.70;;;;;;4608453;30;20364;-84
2021/08/18 12:32:01;;;;;;;5.30;4.80;;;20.60;78.80;;;;;;4706599;30;20226;-83
2021/08/18 12:34:37;;;;;;;7.03;4.67;;;20.70;78.60;;;;;;4709286;30;20268;-82
2021/08/18 12:37:08;;;;;;;5.47;4.70;;;20.80;78.20;;;;;;4722388;29;20369;-84
2021/08/18 12:39:40;;;;;;;7.87;4.33;;;20.90;78.20;;;;;;4782769;29;20736;-83
2021/08/18 12:42:11;;;;;;;5.83;4.70;;;21.00;78.00;;;;;;4812807;29;20821;-84
2021/08/18 12:44:40;;;;;;;6.90;4.40;;;21.00;77.90;;;;;;4819927;29;20787;-81
2021/08/18 12:47:14;;;;;;;5.65;4.18;;;21.40;77.50;;;;;;4816259;29;20252;-86
2021/08/18 12:49:49;;;;;;;6.32;4.00;;;21.50;77.40;;;;;;4823988;29;20284;-82
2021/08/18 12:52:18;;;;;;;5.80;4.40;;;21.60;77.90;;;;;;4823683;29;20799;-84
2021/08/18 12:54:46;;;;;;;7.40;4.30;;;21.40;77.10;;;;;;4816624;29;20608;-82
2021/08/18 12:57:16;;;;;;;4.25;3.72;;;21.20;77.30;;;;;;4815758;29;20756;-84
2021/08/18 12:59:45;;;;;;;6.22;3.97;;;20.90;76.70;;;;;;4825008;29;20462;-83
2021/08/18 13:02:14;;;;;;;6.20;4.47;;;20.70;77.10;;;;;;4811290;29;20222;-84
2021/08/18 13:04:43;;;;;;;5.40;3.95;;;20.50;77.30;;;;;;4818573;29;20197;-85
2021/08/18 13:07:12;;;;;;;4.63;4.07;;;20.60;77.70;;;;;;4819985;29;20236;-86
2021/08/18 13:09:41;;;;;;;6.43;3.97;;;20.70;77.40;;;;;;4823165;29;20572;-82
2021/08/18 13:12:10;;;;;;;4.95;4.00;;;20.70;77.30;;;;;;4817956;29;20240;-81
2021/08/18 13:14:40;;;;;;;8.13;4.03;;;20.80;77.10;;;;;;4826813;29;20237;-85
2021/08/18 13:17:08;;;;;;;6.80;4.28;;;20.90;76.90;;;;;;4823025;29;20585;-84
2021/08/18 13:19:37;;;;;;;4.72;3.83;;;20.80;76.60;;;;;;4832536;29;20272;-83
2021/08/18 13:22:05;;;;;;;5.50;3.73;;;20.70;76.80;;;;;;4811933;29;20279;-84
2021/08/18 13:24:34;;;;;;;5.13;4.22;;;20.60;77.00;;;;;;4820580;29;20297;-84
2021/08/18 13:27:04;;;;;;;4.93;3.88;;;20.60;77.30;;;;;;4811330;29;20216;-83
2021/08/18 13:29:32;;;;;;;4.28;3.88;;;20.80;77.10;;;;;;4812778;29;20673;-85
2021/08/18 13:32:02;;;;;;;6.88;3.90;;;21.00;77.10;;;;;;4810348;29;20225;-82
2021/08/18 13:34:31;;;;;;;4.38;3.92;;;21.20;77.30;;;;;;4814433;29;20336;-83
2021/08/18 13:36:59;;;;;;;4.10;3.63;;;21.60;77.10;;;;;;4818316;29;20772;-82
2021/08/18 13:39:28;;;;;;;6.75;4.82;;;21.90;76.50;;;;;;4822379;29;20681;-85
2021/08/18 13:41:57;;;;;;;7.13;4.18;;;22.00;75.90;;;;;;4815281;29;20432;-85
2021/08/18 13:44:26;;;;;;;5.00;4.55;;;21.70;76.50;;;;;;4829881;29;20217;-86
2021/08/18 13:46:55;;;;;;;4.97;4.25;;;21.50;76.10;;;;;;4832477;29;20516;-84
2021/08/18 13:49:25;;;;;;;6.03;4.07;;;21.40;76.30;;;;;;4835203;29;20683;-84
2021/08/18 13:51:53;;;;;;;9.85;4.70;;;21.30;76.40;;;;;;4828927;29;20617;-86
2021/08/18 13:54:24;;;;;;;6.07;4.40;;;21.10;76.40;;;;;;4827798;29;20612;-83
2021/08/18 13:56:54;;;;;;;4.10;3.70;;;21.20;76.50;;;;;;4828452;29;20212;-84
2021/08/18 13:59:23;;;;;;;6.18;3.88;;;21.40;76.50;;;;;;4842767;29;20215;-84
2021/08/18 14:01:52;;;;;;;4.72;3.47;;;21.70;76.30;;;;;;4837350;29;20206;-88
2021/08/18 14:04:21;;;;;;;5.47;3.92;;;21.80;76.10;;;;;;4829736;29;20317;-86
2021/08/18 14:06:51;;;;;;;4.05;3.58;;;21.70;76.20;;;;;;4822382;29;20256;-85
2021/08/18 14:09:20;;;;;;;6.20;3.67;;;21.80;75.90;;;;;;4830636;29;20205;-84
2021/08/18 14:11:49;;;;;;;4.47;3.58;;;21.60;75.80;;;;;;4830130;29;20247;-85
2021/08/18 14:14:33;;;;;;;5.60;3.63;;;21.60;75.40;;;;;;4827396;29;20267;-84
2021/08/18 14:17:03;;;;;;;7.63;3.85;;;21.50;75.60;;;;;;4831669;29;20201;-86
2021/08/18 14:19:31;;;;;;;6.90;3.88;;;21.50;75.70;;;;;;4828907;29;20886;-85
2021/08/18 14:22:01;;;;;;;4.40;3.42;;;21.50;75.50;;;;;;4822576;29;20265;-83
2021/08/18 14:24:30;;;;;;;5.60;3.65;;;21.40;75.50;;;;;;4826379;29;20297;-83
2021/08/18 14:26:58;;;;;;;5.13;3.28;;;21.60;75.70;;;;;;4828455;29;20680;-87
2021/08/18 14:29:27;;;;;;;4.80;3.72;;;21.60;75.50;;;;;;4832579;29;20818;-85
2021/08/18 14:31:56;;;;;;;5.10;3.33;;;21.80;75.80;;;;;;4833796;29;20239;-87
2021/08/18 14:34:28;;;;;;;5.57;3.97;;;22.20;75.40;;;;;;4840086;29;20289;-85
2021/08/18 14:36:58;;;;;;;4.45;3.58;;;22.80;75.10;;;;;;4849803;29;20632;-83
2021/08/18 14:39:29;;;;;;;5.47;3.47;;;22.70;75.20;;;;;;4850331;29;20354;-82
2021/08/18 14:41:58;;;;;;;5.15;4.00;;;22.70;74.90;;;;;;4851621;29;20290;-87
2021/08/18 14:44:27;;;;;;;5.45;3.80;;;22.60;74.80;;;;;;4850103;29;20221;-88
2021/08/18 14:46:56;;;;;;;4.97;3.88;;;22.50;75.00;;;;;;4854314;29;20291;-86
2021/08/18 14:49:25;;;;;;;5.28;3.58;;;22.50;74.90;;;;;;4849751;29;20216;-86
2021/08/18 14:51:53;;;;;;;5.57;3.90;;;22.30;75.10;;;;;;4847295;29;20209;-83
2021/08/18 14:54:23;;;;;;;4.75;3.30;;;22.30;74.90;;;;;;4857639;29;20818;-85
2021/08/18 14:56:53;;;;;;;4.18;3.03;;;22.20;74.90;;;;;;4852148;29;20214;-84
2021/08/18 14:59:22;;;;;;;4.00;3.22;;;22.20;74.50;;;;;;4851835;29;20213;-86
2021/08/18 15:01:50;;;;;;;4.13;3.17;;;22.20;74.50;;;;;;4855630;29;20231;-85
2021/08/18 15:04:20;;;;;;;3.60;2.83;;;22.50;75.00;;;;;;4863512;29;20201;-87
2021/08/18 15:06:49;;;;;;;4.35;3.38;;;23.10;73.60;;;;;;4858013;29;20198;-86
2021/08/18 15:09:17;;;;;;;5.07;3.25;;;23.60;72.70;;;;;;4857121;29;20709;-87
2021/08/18 15:11:47;;;;;;;3.88;2.92;;;23.80;72.50;;;;;;4855831;29;20264;-86
2021/08/18 15:14:18;;;;;;;3.40;3.10;;;23.80;72.40;;;;;;4852402;29;20242;-85
2021/08/18 15:16:50;;;;;;;3.85;3.47;;;23.60;72.30;;;;;;4846803;29;20206;-88
2021/08/18 15:19:22;;;;;;;4.30;3.20;;;23.20;72.40;;;;;;4845501;29;20235;-83
2021/08/18 15:21:52;;;;;;;4.32;3.30;;;23.00;72.70;;;;;;4849157;29;20220;-87
2021/08/18 15:24:22;;;;;;;4.00;2.83;;;22.80;73.10;;;;;;4854876;29;20285;-83
2021/08/18 15:26:51;;;;;;;3.30;2.53;;;22.60;72.30;;;;;;4854116;29;20536;-87
2021/08/18 15:29:22;;;;;;;3.22;2.95;;;22.90;72.10;;;;;;4851663;29;20202;-86
2021/08/18 15:31:51;;;;;;;3.17;2.88;;;23.20;71.20;;;;;;4846919;29;20197;-86
2021/08/18 15:34:23;;;;;;;6.10;3.00;;;22.80;71.70;;;;;;4854643;29;20252;-84
2021/08/18 15:36:53;;;;;;;3.70;3.08;;;22.30;71.90;;;;;;4852473;29;20335;-85
2021/08/18 15:39:22;;;;;;;5.25;3.35;;;22.10;72.30;;;;;;4847774;29;20308;-85
2021/08/18 15:41:52;;;;;;;4.05;3.28;;;22.00;72.20;;;;;;4852470;29;20224;-85
2021/08/18 15:44:23;;;;;;;4.70;3.10;;;21.70;72.10;;;;;;4847089;29;20210;-88
2021/08/18 15:46:54;;;;;;;3.28;2.90;;;21.90;73.30;;;;;;4850094;29;20233;-86
2021/08/18 15:49:23;;;;;;;3.97;3.00;;;22.70;72.10;;;;;;4853652;29;20212;-86
2021/08/18 15:51:52;;;;;;;3.55;2.88;;;23.60;71.10;;;;;;4853973;29;20294;-87
2021/08/18 15:54:22;;;;;;;3.72;2.92;;;23.80;70.20;;;;;;4856177;29;20674;-84
2021/08/18 15:56:52;;;;;;;4.50;2.75;;;23.40;69.50;;;;;;4844267;29;20273;-84
2021/08/18 15:59:22;;;;;;;4.63;3.25;;;23.20;69.70;;;;;;4858497;29;20189;-85
2021/08/18 16:01:51;;;;;;;6.40;2.90;;;23.30;69.70;;;;;;4842125;29;20210;-83
2021/08/18 16:04:20;;;;;;;3.28;2.88;;;23.50;70.10;;;;;;4840934;29;20213;-85
2021/08/18 16:06:48;;;;;;;3.38;2.90;;;23.30;69.70;;;;;;4848393;29;20208;-85
2021/08/18 16:09:36;;;;;;;3.97;3.03;;;22.80;69.90;;;;;;4846430;29;20692;-86
2021/08/18 16:12:04;;;;;;;3.75;3.10;;;22.00;70.30;;;;;;4839238;29;20202;-86
2021/08/18 16:14:35;;;;;;;4.32;3.17;;;21.60;70.90;;;;;;4843376;29;20348;-87
2021/08/18 16:17:05;;;;;;;7.83;3.53;;;21.20;71.50;;;;;;4842152;29;20248;-86
2021/08/18 16:19:39;;;;;;;6.03;3.50;;;20.90;72.10;;;;;;4858062;29;20256;-85
2021/08/18 16:22:08;;;;;;;5.27;3.37;;;20.70;72.30;;;;;;4839224;29;20197;-81
2021/08/18 16:24:36;;;;;;;3.93;3.50;;;20.60;73.00;;;;;;4834839;29;20300;-86
2021/08/18 16:27:07;;;;;;;3.37;2.97;;;20.50;72.70;;;;;;4834861;29;20258;-87
2021/08/18 16:29:38;;;;;;;3.33;2.80;;;20.40;73.10;;;;;;4848983;29;20220;-86
2021/08/18 16:32:07;;;;;;;4.40;3.20;;;20.30;73.50;;;;;;4840783;29;20194;-85
2021/08/18 16:34:39;;;;;;;3.67;3.27;;;20.20;73.80;;;;;;4840864;29;20244;-90
2021/08/18 16:37:09;;;;;;;3.90;3.50;;;20.10;74.00;;;;;;4841625;29;20201;-86
2021/08/18 16:39:38;;;;;;;3.93;3.50;;;20.10;73.90;;;;;;4841941;29;20268;-84
2021/08/18 16:42:08;;;;;;;5.30;3.30;;;20.10;73.70;;;;;;4842543;29;20197;-88
2021/08/18 16:44:39;;;;;;;6.73;3.20;;;20.00;73.70;;;;;;4841202;29;20655;-88
2021/08/18 16:47:08;;;;;;;3.37;2.93;;;20.00;73.70;;;;;;4847043;29;20306;-85
2021/08/18 16:49:38;;;;;;;5.40;3.20;;;20.00;73.90;;;;;;4847757;29;21035;-85
2021/08/18 16:52:07;;;;;;;6.13;3.33;;;19.90;73.80;;;;;;4840881;29;20213;-85
2021/08/18 16:54:37;;;;;;;4.70;3.30;;;19.80;73.70;;;;;;4850719;29;20205;-87
2021/08/18 16:57:08;;;;;;;5.60;3.60;;;19.80;73.90;;;;;;4850359;29;20205;-88
2021/08/18 16:59:38;;;;;;;3.80;3.30;;;19.70;74.10;;;;;;4847133;29;20209;-85
2021/08/18 17:02:08;;;;;;;4.13;3.33;;;19.60;74.10;;;;;;4839088;29;20210;-87
2021/08/18 17:04:37;;;;;;;3.83;3.10;;;19.50;74.00;;;;;;4841483;29;20717;-86
2021/08/18 17:07:06;;;;;;;4.50;3.60;;;19.50;74.50;;;;;;4838881;29;20205;-84
2021/08/18 17:09:36;;;;;;;4.33;3.00;;;19.40;74.30;;;;;;4842259;29;20654;-86
2021/08/18 17:12:05;;;;;;;4.40;3.20;;;19.40;75.10;;;;;;4839990;29;20220;-87
2021/08/18 17:14:34;;;;;;;4.33;3.27;;;19.40;74.60;;;;;;4846578;29;20219;-88
2021/08/18 17:17:05;;;;;;;4.17;3.00;;;19.30;74.70;;;;;;4843768;29;20648;-88
2021/08/18 17:19:34;;;;;;;3.70;3.30;;;19.30;75.00;;;;;;4850316;29;20211;-84
2021/08/18 17:22:04;;;;;;;4.10;3.17;;;19.30;74.60;;;;;;4856825;29;20194;-87
2021/08/18 17:24:39;;;;;;;4.97;3.17;;;19.30;74.80;;;;;;4877996;24;20243;-91
2021/08/18 17:27:10;;;;;;;5.10;3.33;;;19.20;75.20;;;;;;4849440;29;20229;-88
2021/08/18 17:29:40;;;;;;;4.60;3.80;;;19.10;75.20;;;;;;4851544;29;20351;-86
2021/08/18 17:32:10;;;;;;;4.20;3.50;;;19.00;75.10;;;;;;4851921;29;20210;-87
2021/08/18 17:34:39;;;;;;;5.50;3.20;;;18.80;75.60;;;;;;4857584;29;20229;-87
2021/08/18 17:37:09;;;;;;;4.00;3.27;;;18.70;75.50;;;;;;4856165;29;20236;-86
2021/08/18 17:39:38;;;;;;;5.20;3.43;;;18.80;75.60;;;;;;4867236;29;20209;-87
2021/08/18 17:42:07;;;;;;;4.47;3.30;;;18.70;75.80;;;;;;4859789;29;20420;-88
2021/08/18 17:44:42;;;;;;;3.87;3.47;;;18.60;76.00;;;;;;4859129;29;20206;-90
2021/08/18 17:47:16;;;;;;;4.37;3.30;;;18.50;76.10;;;;;;4854195;29;20225;-88
2021/08/18 17:49:47;;;;;;;3.37;3.07;;;18.40;76.40;;;;;;4862202;29;20217;-86
2021/08/18 17:52:16;;;;;;;4.90;3.40;;;18.30;76.70;;;;;;4865833;29;20205;-87
2021/08/18 17:54:45;;;;;;;4.93;3.37;;;18.30;76.80;;;;;;4871241;29;20193;-88
2021/08/18 17:57:16;;;;;;;4.30;3.20;;;18.20;77.50;;;;;;4870362;29;20209;-90
2021/08/18 17:59:48;;;;;;;4.87;3.33;;;18.10;77.60;;;;;;4862277;29;20215;-88
2021/08/18 18:02:19;;;;;;;4.50;3.50;;;18.00;77.70;;;;;;4853403;29;20275;-89
2021/08/18 18:04:48;;;;;;;3.30;2.60;;;17.90;78.10;;;;;;4846899;29;20242;-88
2021/08/18 18:07:18;;;;;;;3.43;3.00;;;18.00;78.10;;;;;;4862778;29;20204;-86
2021/08/18 18:09:51;;;;;;;4.43;3.23;;;17.90;78.10;;;;;;4849579;29;20283;-86
2021/08/18 18:12:22;;;;;;;5.13;3.27;;;17.80;78.30;;;;;;4845769;29;20209;-85
2021/08/18 18:15:03;;;;;;;5.00;3.80;;;17.80;78.10;;;;;;4842460;29;20269;-89
2021/08/18 18:17:36;;;;;;;3.43;3.13;;;17.80;78.50;;;;;;4847234;29;20209;-88
2021/08/18 18:20:07;;;;;;;4.93;3.20;;;17.70;78.80;;;;;;4849784;29;20509;-87
2021/08/18 18:22:37;;;;;;;5.70;3.13;;;17.60;78.90;;;;;;4846771;29;20770;-86
2021/08/18 18:25:15;;;;;;;4.00;3.30;;;17.50;79.10;;;;;;4848047;29;20202;-88
2021/08/18 18:28:00;;;;;;;5.17;3.57;;;17.40;79.30;;;;;;4843635;29;20218;-88
2021/08/18 18:30:33;;;;;;;5.13;3.80;;;17.30;79.90;;;;;;4846405;29;20256;-89
2021/08/18 18:33:07;;;;;;;4.17;3.47;;;17.20;79.80;;;;;;4862007;29;20228;-86
2021/08/18 18:35:40;;;;;;;6.27;4.00;;;17.10;80.00;;;;;;4851374;29;20233;-88
2021/08/18 18:38:10;;;;;;;4.40;3.40;;;17.10;80.30;;;;;;4854481;29;20197;-85
2021/08/18 18:40:41;;;;;;;4.33;3.67;;;16.90;80.70;;;;;;4851382;29;20198;-86
2021/08/18 18:43:11;;;;;;;5.80;3.90;;;16.90;80.80;;;;;;4864553;29;20216;-90
2021/08/18 18:45:41;;;;;;;7.23;4.30;;;16.90;80.80;;;;;;4854232;29;20228;-87
2021/08/18 18:48:12;;;;;;;4.90;3.90;;;16.80;81.10;;;;;;4855430;29;20640;-89
2021/08/18 18:50:45;;;;;;;6.40;4.10;;;16.80;81.40;;;;;;4852299;29;20247;-89
2021/08/18 18:53:14;;;;;;;6.63;4.50;;;16.80;81.80;;;;;;4850487;29;20272;-89
2021/08/18 18:55:45;;;;;;;6.77;4.63;;;16.70;81.80;;;;;;4854095;29;20231;-87
2021/08/18 18:58:16;;;;;;;6.80;4.70;;;16.70;82.00;;;;;;4846588;29;20210;-89
2021/08/18 19:01:04;;;;;;;7.57;4.73;;;16.70;82.10;;;;;;4852635;29;21099;-88
2021/08/18 19:03:38;;;;;;;6.30;4.80;;;16.60;82.20;;;;;;4851547;29;20269;-88
2021/08/18 19:06:17;;;;;;;6.73;4.10;;;16.50;82.50;;;;;;4842568;29;20237;-87
2021/08/18 19:08:48;;;;;;;7.53;4.07;;;16.50;82.70;;;;;;4843856;29;20825;-87
2021/08/18 19:11:18;;;;;;;6.30;4.50;;;16.40;82.90;;;;;;4848071;29;20222;-87
2021/08/18 19:13:48;;;;;;;6.93;4.83;;;16.40;83.10;;;;;;4842732;29;20221;-89
2021/08/18 19:16:21;;;;;;;5.30;4.23;;;16.30;83.10;;;;;;4860005;29;20276;-86
2021/08/18 19:18:53;;;;;;;7.40;4.80;;;16.30;83.40;;;;;;4848371;29;20708;-86
2021/08/18 19:21:30;;;;;;;6.77;4.70;;;16.30;83.80;;;;;;4853132;29;20205;-87
2021/08/18 19:24:07;;;;;;;8.97;5.00;;;16.30;83.80;;;;;;4852853;29;20261;-88
2021/08/18 19:26:37;;;;;;;5.83;5.10;;;16.30;84.00;;;;;;4861130;29;20253;-89
2021/08/18 19:31:49;;;;;;;8.53;5.60;;;16.30;84.40;;;;;;5391399;23;20263;-87
2021/08/18 19:34:26;;;;;;;9.73;6.00;;;16.30;84.50;;;;;;4880188;23;20646;-86
2021/08/18 19:36:58;;;;;;;6.83;5.57;;;16.20;84.30;;;;;;4876778;24;20237;-89
2021/08/18 19:39:48;;;;;;;7.90;5.63;;;16.20;84.50;;;;;;4855483;29;20214;-89
2021/08/18 19:42:17;;;;;;;7.07;5.77;;;16.20;84.80;;;;;;4867929;29;20217;-87
2021/08/18 19:44:46;;;;;;;8.67;5.37;;;16.10;84.70;;;;;;4862607;29;20535;-86
2021/08/18 19:47:28;;;;;;;8.20;4.93;;;16.10;84.80;;;;;;4859411;29;20229;-88
2021/08/18 19:50:07;;;;;;;8.00;5.20;;;16.10;85.10;;;;;;4897553;24;20253;-88
2021/08/18 19:52:54;;;;;;;7.00;5.13;;;16.00;84.90;;;;;;4846253;29;20240;-88
2021/08/18 19:55:53;;;;;;;8.67;5.67;;;16.00;84.80;;;;;;4853140;29;20212;-85
2021/08/18 19:58:34;;;;;;;6.00;5.37;;;15.90;85.00;;;;;;4861850;29;20289;-91
2021/08/18 20:04:09;;;;;;;7.90;5.83;;;15.80;85.10;;;;;;4862163;29;20197;-88
2021/08/18 20:06:46;;;;;;;10.63;5.67;;;15.80;85.20;;;;;;4846219;29;20297;-87
2021/08/18 20:09:23;;;;;;;6.20;5.03;;;15.70;85.50;;;;;;4858206;29;20296;-88
2021/08/18 20:11:56;;;;;;;6.93;5.33;;;15.70;85.60;;;;;;4850152;29;20209;-88
2021/08/18 20:17:26;;;;;;;6.63;5.43;;;15.90;85.40;;;;;;4845328;29;20316;-88
2021/08/18 20:19:59;;;;;;;6.43;4.90;;;16.00;85.30;;;;;;4848509;29;20237;-88
2021/08/18 20:22:28;;;;;;;7.80;5.33;;;16.00;85.20;;;;;;4852264;29;20218;-87
2021/08/18 20:25:08;;;;;;;6.60;4.90;;;16.10;85.30;;;;;;4845294;29;20355;-90
2021/08/18 20:27:54;;;;;;;9.67;5.37;;;16.20;85.10;;;;;;4846981;29;20213;-88
2021/08/18 20:30:24;;;;;;;6.83;5.10;;;16.20;84.90;;;;;;4842777;29;20212;-86
2021/08/18 20:32:54;;;;;;;8.00;4.97;;;16.30;84.70;;;;;;4848916;29;20201;-90
2021/08/18 20:35:30;;;;;;;8.13;5.07;;;16.30;84.80;;;;;;4855752;29;20675;-85
2021/08/18 20:38:01;;;;;;;6.13;4.87;;;16.30;84.80;;;;;;4847941;29;21240;-87
2021/08/18 20:40:32;;;;;;;5.80;4.80;;;16.20;84.80;;;;;;4848272;29;20209;-87
2021/08/18 20:43:03;;;;;;;6.33;5.07;;;16.20;85.00;;;;;;4849062;29;20228;-90
2021/08/18 20:45:35;;;;;;;8.37;5.43;;;16.30;85.00;;;;;;4847703;29;20213;-88
2021/08/18 20:48:12;;;;;;;6.53;5.60;;;16.20;84.70;;;;;;4853986;29;20210;-88
2021/08/18 20:50:47;;;;;;;7.00;5.77;;;16.20;84.70;;;;;;4850581;29;20232;-87
2021/08/18 20:53:19;;;;;;;7.93;5.77;;;16.20;84.70;;;;;;4853048;29;20197;-88
2021/08/18 20:55:54;;;;;;;7.00;5.43;;;16.10;84.70;;;;;;4850004;29;20219;-86
2021/08/18 20:58:23;;;;;;;7.47;5.00;;;16.10;84.60;;;;;;4854488;29;20609;-88
2021/08/18 21:00:53;;;;;;;7.30;5.50;;;16.10;84.80;;;;;;4849196;29;20208;-86
2021/08/18 21:03:23;;;;;;;5.73;4.70;;;16.10;84.80;;;;;;4865971;29;20257;-88
2021/08/18 21:06:13;;;;;;;6.67;5.50;;;16.10;84.80;;;;;;5146748;24;20276;-88
2021/08/18 21:08:44;;;;;;;5.90;5.30;;;16.10;84.60;;;;;;4967658;24;20227;-87
2021/08/18 21:11:15;;;;;;;6.63;5.43;;;16.10;84.60;;;;;;4855503;29;20209;-88
2021/08/18 21:13:45;;;;;;;6.20;5.10;;;16.10;84.60;;;;;;4848407;29;20247;-86
2021/08/18 21:16:19;;;;;;;7.40;5.20;;;16.10;84.60;;;;;;4842117;29;20256;-86
2021/08/18 21:18:53;;;;;;;6.80;5.27;;;16.10;84.50;;;;;;4851505;29;20235;-89
2021/08/18 21:21:36;;;;;;;6.23;5.00;;;16.20;84.60;;;;;;4850636;29;20278;-90
2021/08/18 21:24:05;;;;;;;6.10;4.90;;;16.20;84.70;;;;;;4850648;29;20240;-84
2021/08/18 21:26:36;;;;;;;6.60;5.00;;;16.10;85.10;;;;;;4862796;29;20205;-88
2021/08/18 21:29:07;;;;;;;6.50;5.70;;;16.10;85.00;;;;;;4866567;29;20201;-86
2021/08/18 21:31:50;;;;;;;6.53;5.00;;;16.10;84.90;;;;;;4858587;29;20220;-87
2021/08/18 21:34:20;;;;;;;5.77;5.17;;;16.20;84.80;;;;;;4859465;29;20205;-87
2021/08/18 21:36:52;;;;;;;5.60;5.00;;;16.20;84.80;;;;;;4856273;29;20276;-89
2021/08/18 21:39:22;;;;;;;6.13;4.80;;;16.20;84.80;;;;;;4865429;29;20568;-86
2021/08/18 21:41:59;;;;;;;7.70;4.80;;;16.20;84.80;;;;;;4855936;29;20212;-86
2021/08/18 21:44:32;;;;;;;5.60;4.67;;;16.30;84.80;;;;;;4846523;29;20224;-88
2021/08/18 21:47:01;;;;;;;6.20;4.63;;;16.30;85.00;;;;;;4853295;29;20238;-90
2021/08/18 21:49:30;;;;;;;6.50;4.30;;;16.30;84.80;;;;;;4861617;29;20297;-86
2021/08/18 21:51:59;;;;;;;5.50;4.40;;;16.20;84.90;;;;;;4861952;29;20210;-88
2021/08/18 21:54:28;;;;;;;7.10;4.80;;;16.20;85.00;;;;;;4850029;29;20197;-86
2021/08/18 21:56:59;;;;;;;5.80;4.60;;;16.20;85.00;;;;;;4856845;29;20226;-88
2021/08/18 21:59:28;;;;;;;5.30;4.73;;;16.30;85.00;;;;;;4869053;29;20237;-89
2021/08/18 22:01:57;;;;;;;4.87;4.40;;;16.30;85.10;;;;;;4857588;29;20239;-90
2021/08/18 22:04:32;;;;;;;7.10;4.93;;;16.30;85.00;;;;;;4842710;29;20973;-88
2021/08/18 22:07:01;;;;;;;7.73;5.27;;;16.40;85.00;;;;;;4851862;29;21024;-87
2021/08/18 22:09:30;;;;;;;5.10;4.60;;;16.30;85.10;;;;;;4866898;29;20206;-86
2021/08/18 22:12:02;;;;;;;6.27;4.90;;;16.30;85.10;;;;;;4861569;29;20278;-88
2021/08/18 22:14:34;;;;;;;6.77;4.90;;;16.30;85.20;;;;;;4844244;29;20368;-87
2021/08/18 22:17:13;;;;;;;7.50;5.10;;;16.30;85.30;;;;;;4847365;29;20217;-88
2021/08/18 22:19:45;;;;;;;5.20;4.60;;;16.30;85.10;;;;;;4867282;29;20231;-86
2021/08/18 22:22:15;;;;;;;5.30;4.80;;;16.30;85.10;;;;;;4860301;29;20205;-87
2021/08/18 22:24:44;;;;;;;4.83;4.37;;;16.30;85.30;;;;;;4858474;29;20209;-89
2021/08/18 22:27:19;;;;;;;5.77;4.90;;;16.30;85.30;;;;;;4858460;29;20602;-88
2021/08/18 22:30:11;;;;;;;7.60;4.80;;;16.30;85.30;;;;;;4847885;29;20305;-85
2021/08/18 22:32:47;;;;;;;8.93;4.73;;;16.20;85.40;;;;;;4845314;29;20205;-87
2021/08/18 22:35:17;;;;;;;5.60;4.77;;;16.10;85.50;;;;;;4854175;29;20240;-89
2021/08/18 22:37:48;;;;;;;4.80;4.30;;;16.10;85.50;;;;;;4851573;29;20229;-87
2021/08/18 22:40:20;;;;;;;6.50;4.77;;;16.10;85.60;;;;;;4848350;29;20269;-89
2021/08/18 22:42:53;;;;;;;7.97;4.57;;;16.10;85.70;;;;;;4841690;29;20212;-88
2021/08/18 22:45:26;;;;;;;5.23;4.73;;;16.00;85.70;;;;;;4846027;29;20217;-89
2021/08/18 22:47:55;;;;;;;6.87;4.37;;;16.00;85.80;;;;;;4848867;29;20257;-88
2021/08/18 22:50:25;;;;;;;6.77;4.33;;;16.00;85.80;;;;;;4847561;29;20591;-88
2021/08/18 22:52:54;;;;;;;8.27;4.70;;;16.00;85.90;;;;;;4843284;29;20213;-88
2021/08/18 22:55:23;;;;;;;7.77;5.20;;;15.90;86.00;;;;;;4852408;29;20242;-89
2021/08/18 22:57:54;;;;;;;6.17;4.80;;;15.90;86.00;;;;;;4840109;29;20288;-88
2021/08/18 23:00:30;;;;;;;6.23;5.07;;;15.90;86.10;;;;;;4849097;29;20216;-88
2021/08/18 23:02:59;;;;;;;5.57;4.57;;;15.90;86.10;;;;;;4840649;29;20209;-88
2021/08/18 23:05:29;;;;;;;5.33;4.30;;;15.90;86.00;;;;;;4840404;29;20225;-89
2021/08/18 23:07:58;;;;;;;5.90;4.87;;;15.90;86.20;;;;;;4844285;29;20739;-88
2021/08/18 23:10:32;;;;;;;9.10;4.90;;;16.00;86.00;;;;;;4840958;29;20209;-87
2021/08/18 23:13:05;;;;;;;7.53;4.63;;;16.00;86.00;;;;;;4844477;29;20736;-87
2021/08/18 23:15:43;;;;;;;5.37;4.50;;;16.00;86.00;;;;;;4837390;29;20201;-86
2021/08/18 23:18:13;;;;;;;6.37;4.77;;;16.00;85.90;;;;;;4837541;29;20240;-88
2021/08/18 23:20:41;;;;;;;5.10;4.37;;;16.10;85.90;;;;;;4845412;29;20665;-87
2021/08/18 23:23:11;;;;;;;5.47;3.80;;;16.10;86.00;;;;;;4838343;29;20233;-87
2021/08/18 23:25:40;;;;;;;6.50;4.20;;;16.10;85.90;;;;;;4843981;29;20269;-88
2021/08/18 23:28:10;;;;;;;5.27;4.47;;;16.10;85.80;;;;;;4845277;29;20470;-87
2021/08/18 23:30:41;;;;;;;4.50;4.00;;;16.10;86.00;;;;;;4839142;29;20208;-88
2021/08/18 23:33:14;;;;;;;8.23;4.63;;;16.10;86.00;;;;;;4856503;29;20212;-90
2021/08/18 23:35:49;;;;;;;4.80;4.20;;;16.10;86.00;;;;;;4850609;29;20225;-85
2021/08/18 23:38:18;;;;;;;5.60;4.60;;;16.10;86.10;;;;;;4843630;29;20201;-88
2021/08/18 23:40:55;;;;;;;6.93;4.23;;;16.10;86.10;;;;;;4840953;29;20219;-86
2021/08/18 23:43:28;;;;;;;6.33;4.03;;;16.10;86.20;;;;;;4851361;29;20698;-86
2021/08/18 23:45:56;;;;;;;7.40;4.33;;;16.00;86.30;;;;;;4850973;29;20202;-88
2021/08/18 23:48:26;;;;;;;6.20;4.07;;;16.00;86.30;;;;;;4846242;29;20205;-89
2021/08/18 23:50:57;;;;;;;6.07;4.50;;;16.00;86.40;;;;;;4839192;29;20216;-87
2021/08/18 23:53:28;;;;;;;6.57;4.30;;;16.00;86.40;;;;;;4835429;29;20224;-85
2021/08/18 23:55:57;;;;;;;6.90;3.93;;;16.00;86.50;;;;;;4846923;29;20221;-86
2021/08/18 23:58:27;;;;;;;5.13;3.90;;;16.10;86.60;;;;;;4839537;29;20216;-87
